Time,TemperatureF,DewpointF,PressureIn,WindDirection,WindDirectionDegrees,WindSpeedMPH,WindSpeedGustMPH,Humidity,HourlyPrecipIn,Conditions,Clouds,dailyrainin,SolarRadiationWatts/m^2,SoftwareType,DateUTC
2013-08-19 00:23:00,80.0,77.0,-100.00,SW,228,1.0,-999.0,92,0.00,,,-99.99,0.000000,,2013-08-19 04:23:00,
2013-08-19 00:53:00,79.0,77.0,-100.00,East,88,1.0,-999.0,95,0.00,,,-99.99,0.000000,,2013-08-19 04:53:00,
2013-08-19 01:22:00,79.0,78.0,-100.00,North,359,2.0,-999.0,96,0.00,,,-99.99,0.000000,,2013-08-19 05:22:00,
2013-08-19 01:52:00,79.0,77.0,-100.00,NNE,28,3.0,-999.0,95,0.00,,,-99.99,0.000000,,2013-08-19 05:52:00,
2013-08-19 02:21:00,78.0,77.0,-100.00,NE,39,2.0,-999.0,96,0.00,,,-99.99,0.000000,,2013-08-19 06:21:00,
2013-08-19 02:52:00,77.0,76.0,-100.00,NNE,27,1.0,-999.0,95,0.00,,,-99.99,0.000000,,2013-08-19 06:52:00,
2013-08-19 03:21:00,77.0,76.0,-100.00,ENE,72,1.0,-999.0,95,0.00,,,-99.99,0.000000,,2013-08-19 07:21:00,
2013-08-19 03:52:00,77.0,76.0,-100.00,NNE,16,1.0,-999.0,95,0.00,,,-99.99,0.000000,,2013-08-19 07:52:00,
2013-08-19 04:21:00,78.0,77.0,-100.00,NE,46,2.0,-999.0,97,0.00,,,-99.99,0.000000,,2013-08-19 08:21:00,
2013-08-19 04:52:00,79.0,78.0,-100.00,ENE,67,2.0,-999.0,97,0.00,,,-99.99,0.000000,,2013-08-19 08:52:00,
2013-08-19 05:22:00,78.0,76.0,-100.00,ESE,106,3.0,-999.0,95,0.00,,,-99.99,0.000000,,2013-08-19 09:22:00,
2013-08-19 05:53:00,81.0,79.0,-100.00,ESE,108,5.0,-999.0,93,0.00,,,-99.99,0.000000,,2013-08-19 09:53:00,
2013-08-19 06:23:00,81.0,78.0,-100.00,East,99,6.0,-999.0,90,0.00,,,-99.99,0.000000,,2013-08-19 10:23:00,
2013-08-19 06:52:00,81.0,78.0,-100.00,ESE,103,6.0,-999.0,89,0.00,,,-99.99,0.000000,,2013-08-19 10:52:00,
2013-08-19 07:22:00,82.0,79.0,-100.00,ESE,111,8.0,-999.0,89,0.00,,,-99.99,2.700000,,2013-08-19 11:22:00,
2013-08-19 07:52:00,83.0,79.0,-100.00,ESE,121,7.0,-999.0,88,0.00,,,-99.99,29.100000,,2013-08-19 11:52:00,
2013-08-19 08:21:00,83.0,78.0,-100.00,SE,135,7.0,-999.0,84,0.00,,,-99.99,87.900002,,2013-08-19 12:21:00,
2013-08-19 08:52:00,85.0,78.0,-100.00,SE,136,9.0,-999.0,78,0.00,,,-99.99,281.299988,,2013-08-19 12:52:00,
2013-08-19 09:22:00,86.0,79.0,-100.00,SE,133,8.0,-999.0,79,0.00,,,-99.99,338.299988,,2013-08-19 13:22:00,
2013-08-19 09:52:00,87.0,79.0,-100.00,SE,131,10.0,-999.0,78,0.00,,,-99.99,377.299988,,2013-08-19 13:52:00,
2013-08-19 10:21:00,86.0,79.0,-100.00,SE,128,10.0,-999.0,78,0.00,,,-99.99,287.299988,,2013-08-19 14:21:00,
2013-08-19 10:52:00,88.0,77.0,-100.00,SE,132,10.0,-999.0,71,0.00,,,-99.99,625.799988,,2013-08-19 14:52:00,
2013-08-19 11:22:00,88.0,79.0,-100.00,ESE,119,8.0,-999.0,76,0.00,,,-99.99,437.500000,,2013-08-19 15:22:00,
2013-08-19 11:54:00,88.0,79.0,-100.00,ESE,115,9.0,-999.0,73,0.00,,,-99.99,495.500000,,2013-08-19 15:54:00,
2013-08-19 12:23:00,85.0,77.0,-100.00,ESE,117,12.0,-999.0,77,0.22,,,-99.99,106.699997,,2013-08-19 16:23:00,
2013-08-19 13:30:00,88.0,-99.9,-100.00,ESE,113,11.0,-999.0,75,0.03,,,-99.99,657.400024,,2013-08-19 17:30:00,
2013-08-19 13:57:00,90.0,78.0,-100.00,SE,139,10.0,-999.0,68,0.00,,,-99.99,991.000000,,2013-08-19 17:57:00,
2013-08-19 14:28:00,89.0,79.0,-100.00,ESE,121,9.0,-999.0,72,0.00,,,-99.99,492.399994,,2013-08-19 18:28:00,
2013-08-19 14:50:00,-999.0,-99.9,-100.00,ESE,119,10.0,-999.0,70,0.00,,,-99.99,926.000000,,2013-08-19 18:50:00,
2013-08-19 15:00:00,-999.0,-99.9,-100.00,ESE,119,10.0,-999.0,70,0.00,,,-99.99,926.000000,,2013-08-19 19:00:00,
2013-08-19 15:30:00,-999.0,-99.9,-100.00,ESE,121,9.0,-999.0,69,0.00,,,-99.99,664.799988,,2013-08-19 19:30:00,
2013-08-19 15:59:00,90.0,77.0,-100.00,ESE,121,9.0,-999.0,66,0.00,,,-99.99,745.000000,,2013-08-19 19:59:00,
2013-08-19 16:30:00,90.0,-99.9,-100.00,SE,134,10.0,-999.0,66,0.00,,,-99.99,683.900024,,2013-08-19 20:30:00,
2013-08-19 17:00:00,-999.0,-99.9,-100.00,SE,124,9.0,-999.0,-999,-99.99,,,-99.99,609.099976,,2013-08-19 21:00:00,
2013-08-19 17:25:00,89.0,78.0,-100.00,ESE,116,10.0,-999.0,70,0.00,,,-99.99,486.399994,,2013-08-19 21:25:00,
2013-08-19 17:55:00,88.0,78.0,-100.00,SE,127,9.0,-999.0,73,0.00,,,-99.99,179.699997,,2013-08-19 21:55:00,
2013-08-19 18:25:00,88.0,78.0,-100.00,ESE,122,8.0,-999.0,72,0.00,,,-99.99,418.299988,,2013-08-19 22:25:00,
2013-08-19 18:55:00,88.0,77.0,-100.00,ESE,120,6.0,-999.0,71,0.00,,,-99.99,264.799988,,2013-08-19 22:55:00,
2013-08-19 19:25:00,87.0,77.0,-100.00,SE,125,6.0,-999.0,72,0.00,,,-99.99,164.399994,,2013-08-19 23:25:00,
2013-08-19 19:55:00,86.0,77.0,-100.00,ESE,104,7.0,-999.0,76,0.00,,,-99.99,9.700000,,2013-08-19 23:55:00,
2013-08-19 20:24:00,85.0,77.0,-100.00,ESE,119,4.0,-999.0,76,0.00,,,-99.99,1.100000,,2013-08-20 00:24:00,
2013-08-19 20:52:00,84.0,77.0,-100.00,ESE,105,6.0,-999.0,79,0.00,,,-99.99,0.000000,,2013-08-20 00:52:00,
2013-08-19 21:22:00,85.0,77.0,-100.00,East,99,6.0,-999.0,77,0.00,,,-99.99,0.000000,,2013-08-20 01:22:00,
2013-08-19 21:52:00,84.0,77.0,-100.00,ESE,111,5.0,-999.0,80,0.00,,,-99.99,0.000000,,2013-08-20 01:52:00,
2013-08-19 22:21:00,84.0,76.0,-100.00,East,86,5.0,-999.0,77,0.00,,,-99.99,0.000000,,2013-08-20 02:21:00,
2013-08-19 22:52:00,83.0,75.0,-100.00,East,82,3.0,-999.0,76,0.00,,,-99.99,0.000000,,2013-08-20 02:52:00,
2013-08-19 23:22:00,83.0,76.0,-100.00,East,85,4.0,-999.0,78,0.00,,,-99.99,0.000000,,2013-08-20 03:22:00,
2013-08-19 23:54:00,83.0,77.0,-100.00,East,89,6.0,-999.0,81,0.00,,,-99.99,0.000000,,2013-08-20 03:54:00,